Ana Sayfa
METAR-TAF:

METAR-TAF

Havaalanları :

Frederick, Oklahoma, Amerika Birleşik Devletleri

Enlem: 34-20-40N, Boylam: 098-58-59W, yükseklik: 382 m

Güncel hava durumu gözlemi

Rapor saat 22:53 UTC de 27 dakika önce yapıldı.
Rüzgar kuzeydan 19 kt
Sıcaklık 13°C
Nem 72%
Basınç 1014 hPa
Görüş mesafesi: 16.1 km
3900 ft yükseklikte çok bulutlu

METAR: KFDR 162253Z AUTO 35019KT 10SM OVC039 13/08 A2993 RMK AO2 SLP130 T01330078

Saat: 18:20 (23:20 UTC)


TAF: eksik

4.000'den fazla havaalanı için hava durumu gözlemleri ve tahminleri (METAR ve TAF raporları).

Kullanılabilir istasyonlar harita üzerinde sarı ve kırmızı noktalarla gösterilir.

İstasyonun adını görmek için fareyi noktanın üzerinde gezdirin.

Sonrasında hava gözlem ve tahminlerini görmek için tıklayın.

Haritayı değiştirmek için: yaklaştırmak için siyah artı işaretli yeşil düğmeye ve uzaklaştırmak için de eksi işaretli düğmeye hızla tıklayın; bitişik haritalar için yeşil okları kullanın.


METAR-TAF: